Georg Stage — OYKL — position and weather

sailwx.info

Track history (hours):
 
Tides and Currents Weather Stations Pressure Air Temp Water Temp Dewpoint Dewpoint Depression Visibility Wind Speed Wind Dir Waves Ship Positions

Georg Stage (Denmark)

Ship's website: http://www.georgstage.dk

Last reported at 2018-Aug-13 11:05 UTC. Time now 2018-Aug-14 07:04 UTC.
Position N 56°04' E 010°31'.

Length 54 m; draft 4.5 m.

Type: Sailing vessel. MMSI: 219417000.

Date/timePositionNaut miles runAvg speedWind from/ knotsBaromVisibWave heightAir tempDewpointWater temp
2018-Aug-13 11:05N 56°04' E 010°31'0 0.9
2018-Aug-13 11:00N 56°04' E 010°31'4 4.8
2018-Aug-13 10:10N 56°08' E 010°28'1 6.3
2018-Aug-13 10:00N 56°08' E 010°26'4 6.2
2018-Aug-13 09:26N 56°09' E 010°20'3 0.1
2018-Aug-11 12:30N 56°11' E 010°15'2 2.6
2018-Aug-11 11:47N 56°09' E 010°13'0 0.0
2018-Aug-11 11:29N 56°09' E 010°13'0 0.0
2018-Aug-11 11:00N 56°09' E 010°13'0 0.0
2018-Aug-11 10:12N 56°09' E 010°13'0 0.0
2018-Aug-11 09:53N 56°09' E 010°13'0 0.0
2018-Aug-11 09:30N 56°09' E 010°13'0 0.0
2018-Aug-11 08:58N 56°09' E 010°13'0 0.0
2018-Aug-11 08:29N 56°09' E 010°13'0 0.0
2018-Aug-11 07:55N 56°09' E 010°13'0 0.0
2018-Aug-11 07:22N 56°09' E 010°13'0 0.0
2018-Aug-11 06:58N 56°09' E 010°13'0 0.0
2018-Aug-11 06:27N 56°09' E 010°13'0 0.0
2018-Aug-11 06:00N 56°09' E 010°13'  
Track history (hours):
 
Tides and Currents Weather Stations Pressure Air Temp Water Temp Dewpoint Dewpoint Depression Visibility Wind Speed Wind Dir Waves Ship Positions

Georg Stage (Denmark)

Ship's website: http://www.georgstage.dk

Last reported at 2018-Aug-13 11:05 UTC. Time now 2018-Aug-14 07:04 UTC.
Position N 56°04' E 010°31'.

Length 54 m; draft 4.5 m.

Type: Sailing vessel. MMSI: 219417000.

Date/timePositionNaut miles runAvg speedWind from/ knotsBaromVisibWave heightAir tempDewpointWater temp
2018-Aug-13 11:05N 56°04' E 010°31'0 0.9
2018-Aug-13 11:00N 56°04' E 010°31'4 4.8
2018-Aug-13 10:10N 56°08' E 010°28'1 6.3
2018-Aug-13 10:00N 56°08' E 010°26'4 6.2
2018-Aug-13 09:26N 56°09' E 010°20'3 0.1
2018-Aug-11 12:30N 56°11' E 010°15'2 2.6
2018-Aug-11 11:47N 56°09' E 010°13'0 0.0
2018-Aug-11 11:29N 56°09' E 010°13'0 0.0
2018-Aug-11 11:00N 56°09' E 010°13'0 0.0
2018-Aug-11 10:12N 56°09' E 010°13'0 0.0
2018-Aug-11 09:53N 56°09' E 010°13'0 0.0
2018-Aug-11 09:30N 56°09' E 010°13'0 0.0
2018-Aug-11 08:58N 56°09' E 010°13'0 0.0
2018-Aug-11 08:29N 56°09' E 010°13'0 0.0
2018-Aug-11 07:55N 56°09' E 010°13'0 0.0
2018-Aug-11 07:22N 56°09' E 010°13'0 0.0
2018-Aug-11 06:58N 56°09' E 010°13'0 0.0
2018-Aug-11 06:27N 56°09' E 010°13'0 0.0
2018-Aug-11 06:00N 56°09' E 010°13'  

Dump ship's entire track history